sensor_id;sensor_type;location;lat;lon;timestamp;P1;durP1;ratioP1;P2;durP2;ratioP2
45043;SDS011;30784;48.490;9.688;2024-02-14T00:02:16;10.02;;;2.70;;
45043;SDS011;30784;48.490;9.688;2024-02-14T00:04:42;6.32;;;1.70;;
45043;SDS011;30784;48.490;9.688;2024-02-14T00:07:07;6.50;;;1.70;;
45043;SDS011;30784;48.490;9.688;2024-02-14T00:09:33;7.60;;;2.50;;
45043;SDS011;30784;48.490;9.688;2024-02-14T00:11:58;8.50;;;2.58;;
45043;SDS011;30784;48.490;9.688;2024-02-14T00:14:24;8.73;;;3.28;;
45043;SDS011;30784;48.490;9.688;2024-02-14T00:16:49;11.10;;;3.80;;
45043;SDS011;30784;48.490;9.688;2024-02-14T00:19:16;9.85;;;3.78;;
45043;SDS011;30784;48.490;9.688;2024-02-14T00:21:41;8.73;;;3.03;;
45043;SDS011;30784;48.490;9.688;2024-02-14T00:24:07;8.45;;;2.90;;
45043;SDS011;30784;48.490;9.688;2024-02-14T00:26:33;9.35;;;2.90;;
45043;SDS011;30784;48.490;9.688;2024-02-14T00:28:58;8.65;;;3.00;;
45043;SDS011;30784;48.490;9.688;2024-02-14T00:31:24;7.68;;;2.53;;
45043;SDS011;30784;48.490;9.688;2024-02-14T00:33:50;7.43;;;2.30;;
45043;SDS011;30784;48.490;9.688;2024-02-14T00:36:16;8.23;;;2.47;;
45043;SDS011;30784;48.490;9.688;2024-02-14T00:38:41;8.15;;;2.17;;
45043;SDS011;30784;48.490;9.688;2024-02-14T00:41:07;6.78;;;1.85;;
45043;SDS011;30784;48.490;9.688;2024-02-14T00:43:32;7.25;;;1.80;;
45043;SDS011;30784;48.490;9.688;2024-02-14T00:45:58;4.43;;;1.45;;
45043;SDS011;30784;48.490;9.688;2024-02-14T00:48:23;6.88;;;1.45;;
45043;SDS011;30784;48.490;9.688;2024-02-14T00:50:49;5.13;;;1.38;;
45043;SDS011;30784;48.490;9.688;2024-02-14T00:53:15;5.25;;;1.38;;
45043;SDS011;30784;48.490;9.688;2024-02-14T00:55:40;7.55;;;1.52;;
45043;SDS011;30784;48.490;9.688;2024-02-14T00:58:06;5.68;;;1.35;;
45043;SDS011;30784;48.490;9.688;2024-02-14T01:00:31;7.93;;;1.52;;
45043;SDS011;30784;48.490;9.688;2024-02-14T01:02:57;5.50;;;1.45;;
45043;SDS011;30784;48.490;9.688;2024-02-14T01:05:23;7.10;;;1.50;;
45043;SDS011;30784;48.490;9.688;2024-02-14T01:07:49;6.88;;;2.03;;
45043;SDS011;30784;48.490;9.688;2024-02-14T01:10:15;5.72;;;1.70;;
45043;SDS011;30784;48.490;9.688;2024-02-14T01:12:40;5.43;;;1.27;;
45043;SDS011;30784;48.490;9.688;2024-02-14T01:15:06;5.43;;;1.40;;
45043;SDS011;30784;48.490;9.688;2024-02-14T01:17:32;6.28;;;1.58;;
45043;SDS011;30784;48.490;9.688;2024-02-14T01:20:00;6.70;;;1.40;;
45043;SDS011;30784;48.490;9.688;2024-02-14T01:22:26;5.50;;;1.30;;
45043;SDS011;30784;48.490;9.688;2024-02-14T01:24:52;6.20;;;1.60;;
45043;SDS011;30784;48.490;9.688;2024-02-14T01:27:17;6.10;;;1.52;;
45043;SDS011;30784;48.490;9.688;2024-02-14T01:29:43;5.80;;;1.60;;
45043;SDS011;30784;48.490;9.688;2024-02-14T01:32:09;7.00;;;1.80;;
45043;SDS011;30784;48.490;9.688;2024-02-14T01:34:34;6.18;;;1.70;;
45043;SDS011;30784;48.490;9.688;2024-02-14T01:37:00;7.15;;;1.90;;
45043;SDS011;30784;48.490;9.688;2024-02-14T01:39:25;9.40;;;1.90;;
45043;SDS011;30784;48.490;9.688;2024-02-14T01:41:51;6.97;;;2.10;;
45043;SDS011;30784;48.490;9.688;2024-02-14T01:44:17;7.07;;;1.58;;
45043;SDS011;30784;48.490;9.688;2024-02-14T01:46:43;5.90;;;1.58;;
45043;SDS011;30784;48.490;9.688;2024-02-14T01:49:12;7.75;;;1.60;;
45043;SDS011;30784;48.490;9.688;2024-02-14T01:51:39;7.30;;;1.77;;
45043;SDS011;30784;48.490;9.688;2024-02-14T01:54:07;6.85;;;1.90;;
45043;SDS011;30784;48.490;9.688;2024-02-14T01:56:33;6.95;;;1.70;;
45043;SDS011;30784;48.490;9.688;2024-02-14T01:58:59;8.20;;;1.90;;
45043;SDS011;30784;48.490;9.688;2024-02-14T02:01:25;6.78;;;1.63;;
45043;SDS011;30784;48.490;9.688;2024-02-14T02:03:51;8.43;;;1.73;;
45043;SDS011;30784;48.490;9.688;2024-02-14T02:06:17;6.78;;;1.40;;
45043;SDS011;30784;48.490;9.688;2024-02-14T02:08:43;8.02;;;1.48;;
45043;SDS011;30784;48.490;9.688;2024-02-14T02:11:09;5.20;;;1.50;;
45043;SDS011;30784;48.490;9.688;2024-02-14T02:13:35;5.25;;;1.38;;
45043;SDS011;30784;48.490;9.688;2024-02-14T02:16:01;7.03;;;1.40;;
45043;SDS011;30784;48.490;9.688;2024-02-14T02:18:30;6.55;;;1.88;;
45043;SDS011;30784;48.490;9.688;2024-02-14T02:20:56;4.75;;;1.27;;
45043;SDS011;30784;48.490;9.688;2024-02-14T02:23:22;8.52;;;1.70;;
45043;SDS011;30784;48.490;9.688;2024-02-14T02:25:47;6.45;;;1.40;;
45043;SDS011;30784;48.490;9.688;2024-02-14T02:28:15;7.50;;;1.67;;
45043;SDS011;30784;48.490;9.688;2024-02-14T02:30:41;6.53;;;1.40;;
45043;SDS011;30784;48.490;9.688;2024-02-14T02:33:06;5.30;;;1.45;;
45043;SDS011;30784;48.490;9.688;2024-02-14T02:35:35;5.93;;;1.70;;
45043;SDS011;30784;48.490;9.688;2024-02-14T02:38:00;5.20;;;1.65;;
45043;SDS011;30784;48.490;9.688;2024-02-14T02:40:26;6.13;;;1.55;;
45043;SDS011;30784;48.490;9.688;2024-02-14T02:42:54;6.90;;;1.95;;
45043;SDS011;30784;48.490;9.688;2024-02-14T02:45:20;7.95;;;1.70;;
45043;SDS011;30784;48.490;9.688;2024-02-14T02:47:46;8.40;;;1.58;;
45043;SDS011;30784;48.490;9.688;2024-02-14T02:50:12;6.25;;;1.70;;
45043;SDS011;30784;48.490;9.688;2024-02-14T02:52:38;7.22;;;1.70;;
45043;SDS011;30784;48.490;9.688;2024-02-14T02:55:05;7.40;;;1.45;;
45043;SDS011;30784;48.490;9.688;2024-02-14T02:57:31;6.75;;;1.63;;
45043;SDS011;30784;48.490;9.688;2024-02-14T02:59:58;5.40;;;1.48;;
45043;SDS011;30784;48.490;9.688;2024-02-14T03:02:24;6.10;;;1.50;;
45043;SDS011;30784;48.490;9.688;2024-02-14T03:04:50;5.65;;;1.60;;
45043;SDS011;30784;48.490;9.688;2024-02-14T03:07:17;7.65;;;1.58;;
45043;SDS011;30784;48.490;9.688;2024-02-14T03:09:44;5.75;;;1.55;;
45043;SDS011;30784;48.490;9.688;2024-02-14T03:12:09;5.53;;;1.63;;
45043;SDS011;30784;48.490;9.688;2024-02-14T03:14:35;4.90;;;1.42;;
45043;SDS011;30784;48.490;9.688;2024-02-14T03:17:04;8.80;;;2.38;;
45043;SDS011;30784;48.490;9.688;2024-02-14T03:19:30;7.43;;;1.58;;
45043;SDS011;30784;48.490;9.688;2024-02-14T03:21:56;5.90;;;1.75;;
45043;SDS011;30784;48.490;9.688;2024-02-14T03:24:22;6.50;;;1.63;;
45043;SDS011;30784;48.490;9.688;2024-02-14T03:26:52;5.45;;;1.42;;
45043;SDS011;30784;48.490;9.688;2024-02-14T03:29:18;4.90;;;1.35;;
45043;SDS011;30784;48.490;9.688;2024-02-14T03:31:45;7.32;;;1.55;;
45043;SDS011;30784;48.490;9.688;2024-02-14T03:34:13;4.80;;;1.50;;
45043;SDS011;30784;48.490;9.688;2024-02-14T03:36:39;5.93;;;1.70;;
45043;SDS011;30784;48.490;9.688;2024-02-14T03:39:05;8.43;;;1.90;;
45043;SDS011;30784;48.490;9.688;2024-02-14T03:41:31;8.00;;;3.00;;
45043;SDS011;30784;48.490;9.688;2024-02-14T03:43:57;9.70;;;2.85;;
45043;SDS011;30784;48.490;9.688;2024-02-14T03:46:26;7.65;;;1.95;;
45043;SDS011;30784;48.490;9.688;2024-02-14T03:48:52;6.72;;;1.60;;
45043;SDS011;30784;48.490;9.688;2024-02-14T03:51:18;6.93;;;1.60;;
45043;SDS011;30784;48.490;9.688;2024-02-14T03:53:44;5.28;;;1.48;;
45043;SDS011;30784;48.490;9.688;2024-02-14T03:56:10;8.45;;;1.80;;
45043;SDS011;30784;48.490;9.688;2024-02-14T03:58:37;5.88;;;1.40;;
45043;SDS011;30784;48.490;9.688;2024-02-14T04:01:03;5.50;;;1.55;;
45043;SDS011;30784;48.490;9.688;2024-02-14T04:03:29;5.93;;;1.50;;
45043;SDS011;30784;48.490;9.688;2024-02-14T04:05:55;4.32;;;1.20;;
45043;SDS011;30784;48.490;9.688;2024-02-14T04:08:21;5.32;;;1.52;;
45043;SDS011;30784;48.490;9.688;2024-02-14T04:10:47;4.32;;;1.30;;
45043;SDS011;30784;48.490;9.688;2024-02-14T04:13:15;6.53;;;1.92;;
45043;SDS011;30784;48.490;9.688;2024-02-14T04:15:41;5.82;;;1.83;;
45043;SDS011;30784;48.490;9.688;2024-02-14T04:18:10;6.60;;;1.73;;
45043;SDS011;30784;48.490;9.688;2024-02-14T04:20:36;6.28;;;1.83;;
45043;SDS011;30784;48.490;9.688;2024-02-14T04:23:01;5.43;;;1.55;;
45043;SDS011;30784;48.490;9.688;2024-02-14T04:25:29;9.80;;;1.90;;
45043;SDS011;30784;48.490;9.688;2024-02-14T04:27:54;5.60;;;1.50;;
45043;SDS011;30784;48.490;9.688;2024-02-14T04:30:20;6.85;;;1.95;;
45043;SDS011;30784;48.490;9.688;2024-02-14T04:32:45;7.07;;;1.70;;
45043;SDS011;30784;48.490;9.688;2024-02-14T04:35:11;5.70;;;1.52;;
45043;SDS011;30784;48.490;9.688;2024-02-14T04:37:38;4.53;;;1.40;;
45043;SDS011;30784;48.490;9.688;2024-02-14T04:40:04;7.20;;;1.85;;
45043;SDS011;30784;48.490;9.688;2024-02-14T04:42:30;6.53;;;1.67;;
45043;SDS011;30784;48.490;9.688;2024-02-14T04:44:56;5.03;;;1.50;;
45043;SDS011;30784;48.490;9.688;2024-02-14T04:47:21;5.72;;;1.67;;
45043;SDS011;30784;48.490;9.688;2024-02-14T04:49:48;7.10;;;1.50;;
45043;SDS011;30784;48.490;9.688;2024-02-14T04:52:13;5.70;;;1.60;;
45043;SDS011;30784;48.490;9.688;2024-02-14T04:54:40;6.05;;;1.48;;
45043;SDS011;30784;48.490;9.688;2024-02-14T04:57:06;6.10;;;1.42;;
45043;SDS011;30784;48.490;9.688;2024-02-14T04:59:31;6.15;;;1.70;;
45043;SDS011;30784;48.490;9.688;2024-02-14T05:01:57;6.97;;;1.60;;
45043;SDS011;30784;48.490;9.688;2024-02-14T05:04:23;6.75;;;1.80;;
45043;SDS011;30784;48.490;9.688;2024-02-14T05:06:49;7.75;;;2.33;;
45043;SDS011;30784;48.490;9.688;2024-02-14T05:09:15;8.23;;;2.20;;
45043;SDS011;30784;48.490;9.688;2024-02-14T05:11:40;7.13;;;1.80;;
45043;SDS011;30784;48.490;9.688;2024-02-14T05:14:06;6.25;;;2.10;;
45043;SDS011;30784;48.490;9.688;2024-02-14T05:16:32;7.07;;;2.33;;
45043;SDS011;30784;48.490;9.688;2024-02-14T05:18:57;6.95;;;2.10;;
45043;SDS011;30784;48.490;9.688;2024-02-14T05:21:23;7.35;;;2.17;;
45043;SDS011;30784;48.490;9.688;2024-02-14T05:23:49;8.10;;;2.85;;
45043;SDS011;30784;48.490;9.688;2024-02-14T05:26:15;8.57;;;2.45;;
45043;SDS011;30784;48.490;9.688;2024-02-14T05:28:41;6.68;;;1.63;;
45043;SDS011;30784;48.490;9.688;2024-02-14T05:31:07;5.85;;;1.50;;
45043;SDS011;30784;48.490;9.688;2024-02-14T05:33:32;6.72;;;1.48;;
45043;SDS011;30784;48.490;9.688;2024-02-14T05:35:58;7.10;;;1.70;;
45043;SDS011;30784;48.490;9.688;2024-02-14T05:38:23;5.18;;;1.67;;
45043;SDS011;30784;48.490;9.688;2024-02-14T05:40:49;6.78;;;1.50;;
45043;SDS011;30784;48.490;9.688;2024-02-14T05:43:15;6.47;;;1.80;;
45043;SDS011;30784;48.490;9.688;2024-02-14T05:45:41;7.80;;;2.00;;
45043;SDS011;30784;48.490;9.688;2024-02-14T05:48:07;7.95;;;2.42;;
45043;SDS011;30784;48.490;9.688;2024-02-14T05:50:32;6.18;;;1.90;;
45043;SDS011;30784;48.490;9.688;2024-02-14T05:52:59;7.55;;;1.95;;
45043;SDS011;30784;48.490;9.688;2024-02-14T05:55:25;4.55;;;1.48;;
45043;SDS011;30784;48.490;9.688;2024-02-14T05:57:50;5.80;;;1.50;;
45043;SDS011;30784;48.490;9.688;2024-02-14T06:00:17;5.30;;;1.90;;
45043;SDS011;30784;48.490;9.688;2024-02-14T06:02:44;5.53;;;1.40;;
45043;SDS011;30784;48.490;9.688;2024-02-14T06:05:09;6.05;;;1.70;;
45043;SDS011;30784;48.490;9.688;2024-02-14T06:07:39;4.95;;;1.50;;
45043;SDS011;30784;48.490;9.688;2024-02-14T06:10:05;5.40;;;1.50;;
45043;SDS011;30784;48.490;9.688;2024-02-14T06:12:32;6.10;;;1.45;;
45043;SDS011;30784;48.490;9.688;2024-02-14T06:14:58;7.07;;;1.60;;
45043;SDS011;30784;48.490;9.688;2024-02-14T06:17:23;6.93;;;1.80;;
45043;SDS011;30784;48.490;9.688;2024-02-14T06:19:51;6.70;;;1.90;;
45043;SDS011;30784;48.490;9.688;2024-02-14T06:22:16;7.47;;;1.77;;
45043;SDS011;30784;48.490;9.688;2024-02-14T06:24:42;7.63;;;1.73;;
45043;SDS011;30784;48.490;9.688;2024-02-14T06:27:07;9.18;;;2.30;;
45043;SDS011;30784;48.490;9.688;2024-02-14T06:29:33;7.70;;;1.95;;
45043;SDS011;30784;48.490;9.688;2024-02-14T06:31:58;8.75;;;2.10;;
45043;SDS011;30784;48.490;9.688;2024-02-14T06:34:24;10.23;;;2.72;;
45043;SDS011;30784;48.490;9.688;2024-02-14T06:36:51;10.23;;;2.95;;
45043;SDS011;30784;48.490;9.688;2024-02-14T06:39:16;12.20;;;3.35;;
45043;SDS011;30784;48.490;9.688;2024-02-14T06:41:42;11.77;;;3.40;;
45043;SDS011;30784;48.490;9.688;2024-02-14T06:44:10;13.60;;;5.30;;
45043;SDS011;30784;48.490;9.688;2024-02-14T06:46:35;9.93;;;4.25;;
45043;SDS011;30784;48.490;9.688;2024-02-14T06:49:02;7.47;;;2.55;;
45043;SDS011;30784;48.490;9.688;2024-02-14T06:51:28;7.30;;;2.05;;
45043;SDS011;30784;48.490;9.688;2024-02-14T06:53:55;5.95;;;1.27;;
45043;SDS011;30784;48.490;9.688;2024-02-14T06:56:21;5.95;;;1.27;;
45043;SDS011;30784;48.490;9.688;2024-02-14T06:58:46;7.18;;;1.60;;
45043;SDS011;30784;48.490;9.688;2024-02-14T07:01:17;4.65;;;1.50;;
45043;SDS011;30784;48.490;9.688;2024-02-14T07:03:48;4.82;;;1.38;;
45043;SDS011;30784;48.490;9.688;2024-02-14T07:06:13;5.35;;;1.42;;
45043;SDS011;30784;48.490;9.688;2024-02-14T07:08:43;5.20;;;1.65;;
45043;SDS011;30784;48.490;9.688;2024-02-14T07:11:08;6.53;;;1.67;;
45043;SDS011;30784;48.490;9.688;2024-02-14T07:13:34;6.13;;;2.08;;
45043;SDS011;30784;48.490;9.688;2024-02-14T07:15:59;5.85;;;1.40;;
45043;SDS011;30784;48.490;9.688;2024-02-14T07:18:27;5.90;;;1.60;;
45043;SDS011;30784;48.490;9.688;2024-02-14T07:20:53;4.97;;;1.20;;
45043;SDS011;30784;48.490;9.688;2024-02-14T07:23:18;3.72;;;1.10;;
45043;SDS011;30784;48.490;9.688;2024-02-14T07:25:45;5.30;;;1.23;;
45043;SDS011;30784;48.490;9.688;2024-02-14T07:28:11;6.47;;;1.83;;
45043;SDS011;30784;48.490;9.688;2024-02-14T07:30:36;4.53;;;1.40;;
45043;SDS011;30784;48.490;9.688;2024-02-14T07:33:02;5.80;;;1.30;;
45043;SDS011;30784;48.490;9.688;2024-02-14T07:35:28;5.95;;;1.20;;
45043;SDS011;30784;48.490;9.688;2024-02-14T07:37:54;6.30;;;1.52;;
45043;SDS011;30784;48.490;9.688;2024-02-14T07:40:20;5.22;;;1.50;;
45043;SDS011;30784;48.490;9.688;2024-02-14T07:42:46;5.15;;;1.20;;
45043;SDS011;30784;48.490;9.688;2024-02-14T07:45:11;4.82;;;1.20;;
45043;SDS011;30784;48.490;9.688;2024-02-14T07:47:37;5.32;;;1.50;;
45043;SDS011;30784;48.490;9.688;2024-02-14T07:50:05;6.50;;;1.80;;
45043;SDS011;30784;48.490;9.688;2024-02-14T07:52:31;7.53;;;2.47;;
45043;SDS011;30784;48.490;9.688;2024-02-14T07:54:57;7.68;;;2.15;;
45043;SDS011;30784;48.490;9.688;2024-02-14T07:57:22;6.88;;;1.70;;
45043;SDS011;30784;48.490;9.688;2024-02-14T07:59:49;5.35;;;1.42;;
45043;SDS011;30784;48.490;9.688;2024-02-14T08:02:16;6.47;;;1.25;;
45043;SDS011;30784;48.490;9.688;2024-02-14T08:04:42;5.35;;;1.50;;
45043;SDS011;30784;48.490;9.688;2024-02-14T08:07:08;6.68;;;1.90;;
45043;SDS011;30784;48.490;9.688;2024-02-14T08:09:34;5.93;;;1.83;;
45043;SDS011;30784;48.490;9.688;2024-02-14T08:12:00;8.35;;;1.80;;
45043;SDS011;30784;48.490;9.688;2024-02-14T08:14:26;7.30;;;1.55;;
45043;SDS011;30784;48.490;9.688;2024-02-14T08:16:52;6.57;;;1.60;;
45043;SDS011;30784;48.490;9.688;2024-02-14T08:19:17;4.13;;;1.15;;
45043;SDS011;30784;48.490;9.688;2024-02-14T08:21:43;6.53;;;1.65;;
45043;SDS011;30784;48.490;9.688;2024-02-14T08:24:09;6.47;;;1.17;;
45043;SDS011;30784;48.490;9.688;2024-02-14T08:26:35;4.93;;;1.20;;
45043;SDS011;30784;48.490;9.688;2024-02-14T08:29:00;5.75;;;1.25;;
45043;SDS011;30784;48.490;9.688;2024-02-14T08:31:26;4.15;;;0.98;;
45043;SDS011;30784;48.490;9.688;2024-02-14T08:33:52;4.03;;;0.95;;
45043;SDS011;30784;48.490;9.688;2024-02-14T08:36:18;4.63;;;1.00;;
45043;SDS011;30784;48.490;9.688;2024-02-14T08:38:44;5.68;;;1.30;;
45043;SDS011;30784;48.490;9.688;2024-02-14T08:41:09;5.00;;;1.17;;
45043;SDS011;30784;48.490;9.688;2024-02-14T08:43:35;4.07;;;1.02;;
45043;SDS011;30784;48.490;9.688;2024-02-14T08:46:00;3.45;;;0.93;;
45043;SDS011;30784;48.490;9.688;2024-02-14T08:48:27;4.35;;;0.90;;
45043;SDS011;30784;48.490;9.688;2024-02-14T08:50:54;3.15;;;0.80;;
45043;SDS011;30784;48.490;9.688;2024-02-14T08:53:20;3.55;;;1.00;;
45043;SDS011;30784;48.490;9.688;2024-02-14T08:55:47;4.55;;;1.27;;
45043;SDS011;30784;48.490;9.688;2024-02-14T08:58:12;5.53;;;1.40;;
45043;SDS011;30784;48.490;9.688;2024-02-14T09:00:38;4.68;;;1.13;;
45043;SDS011;30784;48.490;9.688;2024-02-14T09:03:06;4.40;;;1.17;;
45043;SDS011;30784;48.490;9.688;2024-02-14T09:05:32;4.25;;;1.00;;
45043;SDS011;30784;48.490;9.688;2024-02-14T09:07:58;3.00;;;0.80;;
45043;SDS011;30784;48.490;9.688;2024-02-14T09:10:25;2.65;;;0.80;;
45043;SDS011;30784;48.490;9.688;2024-02-14T09:12:50;6.25;;;1.20;;
45043;SDS011;30784;48.490;9.688;2024-02-14T09:15:16;3.67;;;0.88;;
45043;SDS011;30784;48.490;9.688;2024-02-14T09:17:41;3.47;;;0.90;;
45043;SDS011;30784;48.490;9.688;2024-02-14T09:20:08;3.38;;;1.20;;
45043;SDS011;30784;48.490;9.688;2024-02-14T09:22:35;3.35;;;1.00;;
45043;SDS011;30784;48.490;9.688;2024-02-14T09:25:01;3.95;;;1.15;;
45043;SDS011;30784;48.490;9.688;2024-02-14T09:27:31;3.05;;;0.90;;
45043;SDS011;30784;48.490;9.688;2024-02-14T09:29:58;3.80;;;0.90;;
45043;SDS011;30784;48.490;9.688;2024-02-14T09:32:23;3.50;;;0.90;;
45043;SDS011;30784;48.490;9.688;2024-02-14T09:34:49;3.80;;;0.93;;
45043;SDS011;30784;48.490;9.688;2024-02-14T09:37:15;3.65;;;1.17;;
45043;SDS011;30784;48.490;9.688;2024-02-14T09:39:41;3.63;;;0.95;;
45043;SDS011;30784;48.490;9.688;2024-02-14T09:42:09;4.00;;;0.90;;
45043;SDS011;30784;48.490;9.688;2024-02-14T09:44:38;2.65;;;0.70;;
45043;SDS011;30784;48.490;9.688;2024-02-14T09:47:05;3.72;;;0.77;;
45043;SDS011;30784;48.490;9.688;2024-02-14T09:49:31;3.22;;;0.75;;
45043;SDS011;30784;48.490;9.688;2024-02-14T09:52:01;2.65;;;0.60;;
45043;SDS011;30784;48.490;9.688;2024-02-14T09:56:56;2.95;;;0.70;;
45043;SDS011;30784;48.490;9.688;2024-02-14T09:59:23;2.45;;;0.90;;
45043;SDS011;30784;48.490;9.688;2024-02-14T10:01:49;4.88;;;1.38;;
45043;SDS011;30784;48.490;9.688;2024-02-14T10:04:16;3.50;;;1.05;;
45043;SDS011;30784;48.490;9.688;2024-02-14T10:06:43;3.10;;;0.90;;
45043;SDS011;30784;48.490;9.688;2024-02-14T10:09:13;2.90;;;0.90;;
45043;SDS011;30784;48.490;9.688;2024-02-14T10:11:44;4.13;;;1.00;;
45043;SDS011;30784;48.490;9.688;2024-02-14T10:14:11;3.25;;;0.90;;
45043;SDS011;30784;48.490;9.688;2024-02-14T10:16:37;4.80;;;1.30;;
45043;SDS011;30784;48.490;9.688;2024-02-14T10:19:03;4.90;;;1.60;;
45043;SDS011;30784;48.490;9.688;2024-02-14T10:21:29;4.13;;;1.00;;
45043;SDS011;30784;48.490;9.688;2024-02-14T10:24:01;3.95;;;1.05;;
45043;SDS011;30784;48.490;9.688;2024-02-14T10:26:27;2.78;;;0.80;;
45043;SDS011;30784;48.490;9.688;2024-02-14T10:28:56;3.72;;;1.05;;
45043;SDS011;30784;48.490;9.688;2024-02-14T10:31:24;3.83;;;1.10;;
45043;SDS011;30784;48.490;9.688;2024-02-14T10:33:51;3.88;;;1.00;;
45043;SDS011;30784;48.490;9.688;2024-02-14T10:36:19;3.25;;;0.98;;
45043;SDS011;30784;48.490;9.688;2024-02-14T10:38:46;2.60;;;0.80;;
45043;SDS011;30784;48.490;9.688;2024-02-14T10:41:15;3.13;;;0.80;;
45043;SDS011;30784;48.490;9.688;2024-02-14T10:43:44;2.30;;;0.70;;
45043;SDS011;30784;48.490;9.688;2024-02-14T10:46:16;4.53;;;0.90;;
45043;SDS011;30784;48.490;9.688;2024-02-14T10:48:47;3.30;;;0.80;;
45043;SDS011;30784;48.490;9.688;2024-02-14T10:51:14;3.38;;;0.90;;
45043;SDS011;30784;48.490;9.688;2024-02-14T10:53:41;4.57;;;1.10;;
45043;SDS011;30784;48.490;9.688;2024-02-14T10:56:10;3.45;;;1.00;;
45043;SDS011;30784;48.490;9.688;2024-02-14T10:58:41;3.28;;;0.90;;
45043;SDS011;30784;48.490;9.688;2024-02-14T11:01:09;3.67;;;0.88;;
45043;SDS011;30784;48.490;9.688;2024-02-14T11:03:34;2.00;;;0.60;;
45043;SDS011;30784;48.490;9.688;2024-02-14T11:06:01;1.90;;;0.50;;
45043;SDS011;30784;48.490;9.688;2024-02-14T11:08:28;2.10;;;0.60;;
45043;SDS011;30784;48.490;9.688;2024-02-14T11:10:58;3.13;;;0.60;;
45043;SDS011;30784;48.490;9.688;2024-02-14T11:13:30;2.25;;;0.50;;
45043;SDS011;30784;48.490;9.688;2024-02-14T11:15:57;1.45;;;0.40;;
45043;SDS011;30784;48.490;9.688;2024-02-14T11:18:25;2.38;;;0.80;;
45043;SDS011;30784;48.490;9.688;2024-02-14T11:20:55;3.07;;;0.93;;
45043;SDS011;30784;48.490;9.688;2024-02-14T11:23:22;1.60;;;0.50;;
45043;SDS011;30784;48.490;9.688;2024-02-14T11:25:49;2.42;;;0.60;;
45043;SDS011;30784;48.490;9.688;2024-02-14T11:28:18;3.17;;;0.75;;
45043;SDS011;30784;48.490;9.688;2024-02-14T11:35:47;3.58;;;0.80;;
45043;SDS011;30784;48.490;9.688;2024-02-14T11:38:16;2.13;;;0.55;;
45043;SDS011;30784;48.490;9.688;2024-02-14T11:40:43;2.35;;;0.60;;
45043;SDS011;30784;48.490;9.688;2024-02-14T11:43:12;3.28;;;1.08;;
45043;SDS011;30784;48.490;9.688;2024-02-14T11:48:10;3.80;;;1.15;;
45043;SDS011;30784;48.490;9.688;2024-02-14T11:50:38;3.47;;;0.93;;
45043;SDS011;30784;48.490;9.688;2024-02-14T11:53:05;3.55;;;1.13;;
45043;SDS011;30784;48.490;9.688;2024-02-14T11:55:32;3.60;;;1.10;;
45043;SDS011;30784;48.490;9.688;2024-02-14T11:58:01;3.25;;;0.90;;
45043;SDS011;30784;48.490;9.688;2024-02-14T12:00:27;4.35;;;1.30;;
45043;SDS011;30784;48.490;9.688;2024-02-14T12:02:52;4.20;;;1.30;;
45043;SDS011;30784;48.490;9.688;2024-02-14T12:05:18;4.57;;;1.40;;
45043;SDS011;30784;48.490;9.688;2024-02-14T12:07:44;6.07;;;1.90;;
45043;SDS011;30784;48.490;9.688;2024-02-14T12:10:10;5.30;;;1.50;;
45043;SDS011;30784;48.490;9.688;2024-02-14T12:12:37;7.07;;;2.65;;
45043;SDS011;30784;48.490;9.688;2024-02-14T12:15:03;6.50;;;2.20;;
45043;SDS011;30784;48.490;9.688;2024-02-14T12:17:31;6.20;;;1.95;;
45043;SDS011;30784;48.490;9.688;2024-02-14T12:20:07;4.75;;;1.55;;
45043;SDS011;30784;48.490;9.688;2024-02-14T12:22:35;7.30;;;1.20;;
45043;SDS011;30784;48.490;9.688;2024-02-14T12:25:02;3.35;;;0.70;;
45043;SDS011;30784;48.490;9.688;2024-02-14T12:27:31;2.22;;;0.60;;
45043;SDS011;30784;48.490;9.688;2024-02-14T12:29:57;1.88;;;0.50;;
45043;SDS011;30784;48.490;9.688;2024-02-14T12:32:23;2.53;;;0.55;;
45043;SDS011;30784;48.490;9.688;2024-02-14T12:34:48;1.88;;;0.52;;
45043;SDS011;30784;48.490;9.688;2024-02-14T12:37:14;1.50;;;0.60;;
45043;SDS011;30784;48.490;9.688;2024-02-14T12:39:40;3.78;;;1.23;;
45043;SDS011;30784;48.490;9.688;2024-02-14T12:42:05;4.63;;;1.58;;
45043;SDS011;30784;48.490;9.688;2024-02-14T12:44:31;6.68;;;2.72;;
45043;SDS011;30784;48.490;9.688;2024-02-14T12:46:57;6.20;;;2.83;;
45043;SDS011;30784;48.490;9.688;2024-02-14T12:49:23;5.20;;;2.28;;
45043;SDS011;30784;48.490;9.688;2024-02-14T12:51:51;3.70;;;1.45;;
45043;SDS011;30784;48.490;9.688;2024-02-14T12:54:16;3.17;;;1.20;;
45043;SDS011;30784;48.490;9.688;2024-02-14T12:56:42;2.97;;;1.13;;
45043;SDS011;30784;48.490;9.688;2024-02-14T12:59:08;2.33;;;0.70;;
45043;SDS011;30784;48.490;9.688;2024-02-14T13:01:40;2.80;;;0.80;;
45043;SDS011;30784;48.490;9.688;2024-02-14T13:04:05;2.53;;;0.80;;
45043;SDS011;30784;48.490;9.688;2024-02-14T13:06:32;2.38;;;0.60;;
45043;SDS011;30784;48.490;9.688;2024-02-14T13:08:58;2.47;;;0.80;;
45043;SDS011;30784;48.490;9.688;2024-02-14T13:11:25;3.25;;;0.95;;
45043;SDS011;30784;48.490;9.688;2024-02-14T13:13:50;1.42;;;0.50;;
45043;SDS011;30784;48.490;9.688;2024-02-14T13:16:16;3.55;;;1.00;;
45043;SDS011;30784;48.490;9.688;2024-02-14T13:18:41;3.92;;;0.88;;
45043;SDS011;30784;48.490;9.688;2024-02-14T13:21:07;2.35;;;0.70;;
45043;SDS011;30784;48.490;9.688;2024-02-14T13:23:32;1.65;;;0.43;;
45043;SDS011;30784;48.490;9.688;2024-02-14T13:25:58;2.70;;;0.68;;
45043;SDS011;30784;48.490;9.688;2024-02-14T13:28:24;1.90;;;0.50;;
45043;SDS011;30784;48.490;9.688;2024-02-14T13:30:49;2.33;;;0.63;;
45043;SDS011;30784;48.490;9.688;2024-02-14T13:33:15;3.45;;;1.20;;
45043;SDS011;30784;48.490;9.688;2024-02-14T13:35:41;3.20;;;0.80;;
45043;SDS011;30784;48.490;9.688;2024-02-14T13:38:06;3.45;;;1.00;;
45043;SDS011;30784;48.490;9.688;2024-02-14T13:40:34;3.45;;;0.70;;
45043;SDS011;30784;48.490;9.688;2024-02-14T13:43:00;1.75;;;0.77;;
45043;SDS011;30784;48.490;9.688;2024-02-14T13:45:25;1.83;;;0.55;;
45043;SDS011;30784;48.490;9.688;2024-02-14T13:47:51;2.33;;;0.50;;
45043;SDS011;30784;48.490;9.688;2024-02-14T13:50:29;1.25;;;0.40;;
45043;SDS011;30784;48.490;9.688;2024-02-14T13:52:55;1.45;;;0.40;;
45043;SDS011;30784;48.490;9.688;2024-02-14T13:55:22;0.90;;;0.30;;
45043;SDS011;30784;48.490;9.688;2024-02-14T13:57:47;1.60;;;0.47;;
45043;SDS011;30784;48.490;9.688;2024-02-14T14:00:14;0.57;;;0.20;;
45043;SDS011;30784;48.490;9.688;2024-02-14T14:02:39;1.58;;;0.40;;
45043;SDS011;30784;48.490;9.688;2024-02-14T14:05:08;0.60;;;0.25;;
45043;SDS011;30784;48.490;9.688;2024-02-14T14:07:40;1.70;;;0.50;;
45043;SDS011;30784;48.490;9.688;2024-02-14T14:10:06;1.83;;;0.50;;
45043;SDS011;30784;48.490;9.688;2024-02-14T14:12:35;1.20;;;0.30;;
45043;SDS011;30784;48.490;9.688;2024-02-14T14:15:01;1.50;;;0.40;;
45043;SDS011;30784;48.490;9.688;2024-02-14T14:17:27;2.90;;;0.80;;
45043;SDS011;30784;48.490;9.688;2024-02-14T14:19:53;6.68;;;2.10;;
45043;SDS011;30784;48.490;9.688;2024-02-14T14:22:19;6.47;;;1.95;;
45043;SDS011;30784;48.490;9.688;2024-02-14T14:24:46;4.18;;;1.13;;
45043;SDS011;30784;48.490;9.688;2024-02-14T14:27:11;1.52;;;0.60;;
45043;SDS011;30784;48.490;9.688;2024-02-14T14:29:39;1.23;;;0.30;;
45043;SDS011;30784;48.490;9.688;2024-02-14T14:32:09;1.58;;;0.52;;
45043;SDS011;30784;48.490;9.688;2024-02-14T14:34:35;2.63;;;0.75;;
45043;SDS011;30784;48.490;9.688;2024-02-14T14:37:00;2.42;;;0.60;;
45043;SDS011;30784;48.490;9.688;2024-02-14T14:39:26;1.60;;;0.50;;
45043;SDS011;30784;48.490;9.688;2024-02-14T14:41:52;3.95;;;1.00;;
45043;SDS011;30784;48.490;9.688;2024-02-14T14:44:24;4.20;;;1.42;;
45043;SDS011;30784;48.490;9.688;2024-02-14T14:46:50;7.93;;;3.78;;
45043;SDS011;30784;48.490;9.688;2024-02-14T14:49:16;7.43;;;3.15;;
45043;SDS011;30784;48.490;9.688;2024-02-14T14:51:41;4.85;;;1.83;;
45043;SDS011;30784;48.490;9.688;2024-02-14T14:54:07;6.10;;;2.38;;